createdAt,value
2019-03-28T00:00:28.244Z,9.27
2019-03-28T00:03:32.316Z,9.27
2019-03-28T00:06:36.067Z,9.31
2019-03-28T00:09:40.214Z,9.33
2019-03-28T00:12:44.337Z,9.33
2019-03-28T00:15:48.644Z,9.28
2019-03-28T00:18:53.400Z,9.38
2019-03-28T00:21:57.161Z,9.30
2019-03-28T00:25:05.356Z,9.30
2019-03-28T00:28:09.109Z,9.28
2019-03-28T00:31:12.862Z,9.29
2019-03-28T00:34:17.000Z,9.46
2019-03-28T00:37:21.020Z,9.49
2019-03-28T00:40:24.833Z,9.40
2019-03-28T00:43:28.597Z,9.46
2019-03-28T00:46:32.381Z,9.40
2019-03-28T00:49:36.113Z,9.53
2019-03-28T00:52:40.266Z,9.51
2019-03-28T00:55:44.013Z,9.44
2019-03-28T00:58:48.072Z,9.42
2019-03-28T01:01:52.182Z,9.38
2019-03-28T01:04:56.254Z,9.44
2019-03-28T01:08:00.002Z,9.43
2019-03-28T01:11:04.888Z,9.39
2019-03-28T01:14:08.684Z,9.37
2019-03-28T01:17:13.098Z,9.46
2019-03-28T01:20:16.863Z,9.41
2019-03-28T01:23:21.092Z,9.38
2019-03-28T01:26:26.466Z,9.36
2019-03-28T01:29:30.262Z,9.36
2019-03-28T01:32:34.294Z,9.39
2019-03-28T01:35:38.029Z,9.33
2019-03-28T01:38:42.202Z,9.41
2019-03-28T01:41:46.280Z,9.36
2019-03-28T01:44:50.038Z,9.42
2019-03-28T01:47:53.823Z,9.40
2019-03-28T01:50:57.642Z,9.43
2019-03-28T01:54:02.095Z,9.39
2019-03-28T01:57:11.200Z,9.44
2019-03-28T02:00:12.754Z,9.32
2019-03-28T02:03:16.485Z,9.34
2019-03-28T02:06:21.516Z,9.31
2019-03-28T02:09:25.610Z,9.38
2019-03-28T02:12:29.333Z,9.34
2019-03-28T02:15:33.584Z,9.30
2019-03-28T02:18:37.336Z,9.32
2019-03-28T02:21:41.526Z,9.32
2019-03-28T02:24:46.131Z,9.36
2019-03-28T02:27:51.189Z,9.38
2019-03-28T02:30:55.111Z,9.36
2019-03-28T02:33:58.874Z,9.30
2019-03-28T02:37:03.044Z,9.36
2019-03-28T02:40:07.512Z,9.31
2019-03-28T02:43:11.236Z,9.27
2019-03-28T02:46:15.012Z,9.33
2019-03-28T02:49:19.671Z,9.36
2019-03-28T02:52:24.514Z,9.35
2019-03-28T02:55:28.606Z,9.38
2019-03-28T02:58:32.729Z,9.34
2019-03-28T03:01:36.454Z,9.38
2019-03-28T03:04:40.175Z,9.26
2019-03-28T03:07:44.951Z,9.29
2019-03-28T03:10:48.683Z,9.32
2019-03-28T03:13:52.450Z,9.13
2019-03-28T03:16:56.879Z,9.27
2019-03-28T03:20:00.581Z,9.31
2019-03-28T03:23:04.320Z,9.35
2019-03-28T03:26:08.038Z,9.45
2019-03-28T03:29:11.784Z,9.41
2019-03-28T03:32:15.868Z,9.37
2019-03-28T03:35:19.868Z,9.31
2019-03-28T03:38:24.377Z,9.34
2019-03-28T03:41:28.098Z,9.40
2019-03-28T03:44:32.213Z,9.33
2019-03-28T03:47:36.341Z,9.35
2019-03-28T03:50:40.080Z,9.29
2019-03-28T03:53:43.892Z,9.25
2019-03-28T03:56:47.668Z,9.24
2019-03-28T03:59:51.430Z,9.37
2019-03-28T04:02:55.155Z,9.25
2019-03-28T04:05:59.245Z,9.26
2019-03-28T04:09:03.964Z,9.23
2019-03-28T04:12:08.141Z,9.24
2019-03-28T04:15:12.001Z,9.27
2019-03-28T04:18:16.520Z,9.24
2019-03-28T04:21:21.041Z,9.32
2019-03-28T04:24:25.045Z,9.26
2019-03-28T04:27:28.790Z,9.27
2019-03-28T04:30:32.523Z,9.21
2019-03-28T04:33:36.963Z,9.20
2019-03-28T04:36:41.225Z,9.19
2019-03-28T04:39:44.974Z,9.17
2019-03-28T04:42:48.728Z,9.24
2019-03-28T04:45:52.874Z,9.28
2019-03-28T04:48:56.940Z,9.12
2019-03-28T04:52:00.668Z,9.18
2019-03-28T04:55:04.716Z,9.23
2019-03-28T04:58:08.460Z,9.16
2019-03-28T05:01:12.173Z,9.14
2019-03-28T05:04:17.290Z,9.22
2019-03-28T05:07:21.424Z,9.18
2019-03-28T05:10:25.145Z,9.13
2019-03-28T05:13:29.290Z,9.20
2019-03-28T05:16:33.360Z,9.14
2019-03-28T05:19:37.118Z,9.20
2019-03-28T05:22:40.853Z,9.19
2019-03-28T05:25:45.323Z,9.21
2019-03-28T05:28:57.501Z,9.21
2019-03-28T05:31:56.328Z,9.22
2019-03-28T05:35:00.690Z,9.16
2019-03-28T05:38:04.839Z,9.10
2019-03-28T05:41:08.563Z,9.19
2019-03-28T05:44:12.688Z,9.20
2019-03-28T05:47:16.915Z,9.23
2019-03-28T05:50:20.988Z,9.20
2019-03-28T05:53:25.306Z,9.23
2019-03-28T05:56:29.495Z,9.21
2019-03-28T05:59:33.224Z,9.24
2019-03-28T06:02:37.239Z,9.25
2019-03-28T06:05:41.763Z,9.32
2019-03-28T06:08:45.922Z,9.34
2019-03-28T06:11:52.845Z,9.31
2019-03-28T06:14:56.112Z,9.31
2019-03-28T06:17:59.869Z,9.30
2019-03-28T06:21:03.977Z,9.31
2019-03-28T06:24:07.781Z,9.28
2019-03-28T06:27:11.524Z,9.31
2019-03-28T06:30:15.540Z,9.36
2019-03-28T06:33:19.274Z,9.37
2019-03-28T06:36:23.304Z,9.41
2019-03-28T06:39:27.975Z,9.48
2019-03-28T06:42:31.724Z,9.47
2019-03-28T06:45:35.450Z,9.47
2019-03-28T06:48:39.178Z,9.53
2019-03-28T06:51:43.738Z,9.53
2019-03-28T06:54:47.453Z,9.60
2019-03-28T06:57:51.583Z,9.67
2019-03-28T07:00:56.056Z,9.65
2019-03-28T07:04:00.154Z,9.66
2019-03-28T07:07:04.835Z,9.69
2019-03-28T07:10:08.882Z,9.74
2019-03-28T07:13:13.072Z,9.84
2019-03-28T07:16:17.114Z,9.85
2019-03-28T07:19:21.258Z,9.86
2019-03-28T07:22:25.028Z,9.88
2019-03-28T07:25:29.997Z,9.90
2019-03-28T07:28:33.828Z,10.03
2019-03-28T07:31:38.012Z,10.10
2019-03-28T07:34:42.129Z,10.14
2019-03-28T07:37:46.221Z,10.09
2019-03-28T07:40:50.408Z,10.20
2019-03-28T07:43:54.146Z,10.18
2019-03-28T07:46:57.926Z,10.12
2019-03-28T07:50:01.807Z,10.15
2019-03-28T07:53:05.707Z,10.19
2019-03-28T07:56:09.809Z,10.33
2019-03-28T07:59:14.228Z,10.42
2019-03-28T08:02:17.948Z,10.49
2019-03-28T08:05:22.141Z,10.58
2019-03-28T08:08:38.255Z,10.62
2019-03-28T08:11:31.957Z,10.69
2019-03-28T08:14:36.355Z,10.68
2019-03-28T08:17:40.112Z,10.64
2019-03-28T08:20:44.152Z,10.62
2019-03-28T08:23:47.900Z,10.57
2019-03-28T08:26:51.993Z,10.55
2019-03-28T08:29:57.838Z,10.50
2019-03-28T08:33:02.646Z,10.52
2019-03-28T08:36:06.769Z,10.55
2019-03-28T08:39:10.901Z,10.54
2019-03-28T08:42:14.982Z,10.55
2019-03-28T08:45:18.699Z,10.57
2019-03-28T08:48:22.732Z,10.55
2019-03-28T08:51:27.458Z,10.62
2019-03-28T08:54:32.495Z,10.63
2019-03-28T08:57:36.601Z,10.57
2019-03-28T09:00:51.729Z,10.66
2019-03-28T09:03:46.048Z,10.69
2019-03-28T09:06:49.806Z,10.62
2019-03-28T09:09:54.497Z,10.63
2019-03-28T09:12:58.228Z,10.64
2019-03-28T09:16:01.950Z,10.77
2019-03-28T09:19:07.951Z,10.76
2019-03-28T09:22:11.705Z,10.83
2019-03-28T09:25:17.073Z,10.77
2019-03-28T09:28:20.816Z,10.79
2019-03-28T09:31:24.636Z,10.84
2019-03-28T09:34:29.345Z,10.99
2019-03-28T09:37:33.078Z,11.01
2019-03-28T09:40:37.193Z,10.99
2019-03-28T09:43:54.624Z,10.85
2019-03-28T09:46:47.404Z,10.93
2019-03-28T09:49:51.144Z,11.17
2019-03-28T09:52:54.932Z,13.07
2019-03-28T09:55:59.442Z,13.92
2019-03-28T09:59:03.185Z,12.43
2019-03-28T10:02:06.918Z,11.92
2019-03-28T10:05:12.646Z,11.81
2019-03-28T10:08:16.820Z,11.73
2019-03-28T10:11:20.671Z,11.76
2019-03-28T10:14:24.771Z,11.74
2019-03-28T10:17:29.444Z,11.83
2019-03-28T10:20:34.024Z,11.41
2019-03-28T10:23:39.977Z,11.48
2019-03-28T10:26:43.868Z,11.82
2019-03-28T10:29:47.960Z,11.75
2019-03-28T10:32:52.045Z,11.64
2019-03-28T10:35:56.621Z,11.70
2019-03-28T10:39:00.824Z,11.93
2019-03-28T10:42:04.879Z,12.15
2019-03-28T10:45:09.108Z,14.77
2019-03-28T10:48:13.194Z,12.68
2019-03-28T10:51:17.670Z,12.36
2019-03-28T10:54:21.773Z,12.54
2019-03-28T10:57:32.030Z,12.33
2019-03-28T11:00:31.892Z,12.43
2019-03-28T11:03:36.046Z,12.72
2019-03-28T11:06:39.795Z,12.75
2019-03-28T11:09:43.603Z,12.68
2019-03-28T11:12:48.091Z,12.56
2019-03-28T11:15:51.837Z,12.46
2019-03-28T11:18:55.926Z,12.24
2019-03-28T11:21:59.663Z,11.99
2019-03-28T11:25:03.861Z,12.48
2019-03-28T11:28:08.151Z,12.66
2019-03-28T11:31:11.842Z,12.77
2019-03-28T11:34:16.301Z,12.64
2019-03-28T11:37:26.424Z,12.63
2019-03-28T11:40:26.286Z,12.56
2019-03-28T11:43:30.032Z,12.65
2019-03-28T11:46:34.117Z,12.52
2019-03-28T11:49:37.858Z,12.48
2019-03-28T11:52:42.797Z,12.38
2019-03-28T11:55:48.866Z,12.45
2019-03-28T11:58:52.836Z,12.33
2019-03-28T12:02:00.595Z,12.32
2019-03-28T12:05:02.572Z,12.32
2019-03-28T12:08:06.382Z,12.18
2019-03-28T12:11:10.612Z,12.07
2019-03-28T12:14:14.724Z,12.13
2019-03-28T12:17:18.470Z,12.11
2019-03-28T12:20:22.423Z,12.17
2019-03-28T12:23:26.590Z,12.16
2019-03-28T12:26:30.340Z,12.15
2019-03-28T12:29:35.770Z,12.13
2019-03-28T12:32:39.791Z,12.18
2019-03-28T12:35:43.547Z,12.16
2019-03-28T12:38:47.277Z,12.13
2019-03-28T12:41:51.334Z,12.07
2019-03-28T12:44:57.265Z,12.06
2019-03-28T12:48:00.734Z,12.12
2019-03-28T12:51:05.231Z,12.09
2019-03-28T12:54:09.334Z,12.07
2019-03-28T12:57:14.512Z,12.03
2019-03-28T13:00:33.193Z,12.03
2019-03-28T13:03:45.476Z,12.01
2019-03-28T13:06:43.731Z,12.07
2019-03-28T13:09:47.828Z,12.13
2019-03-28T13:12:52.694Z,12.14
2019-03-28T13:15:56.424Z,12.06
2019-03-28T13:19:00.183Z,12.09
2019-03-28T13:22:04.184Z,12.27
2019-03-28T13:25:08.306Z,12.15
2019-03-28T13:28:12.048Z,12.20
2019-03-28T13:31:15.793Z,12.17
2019-03-28T13:34:19.889Z,12.15
2019-03-28T13:37:23.999Z,12.20
2019-03-28T13:40:27.749Z,12.24
2019-03-28T13:43:31.466Z,12.18
2019-03-28T13:46:35.196Z,12.17
2019-03-28T13:49:39.721Z,12.23
2019-03-28T13:52:43.431Z,12.23
2019-03-28T13:55:47.165Z,12.19
2019-03-28T13:58:51.251Z,12.48
2019-03-28T14:01:56.023Z,12.31
2019-03-28T14:05:00.130Z,12.28
2019-03-28T14:08:04.385Z,12.32
2019-03-28T14:11:08.127Z,12.27
2019-03-28T14:14:12.208Z,12.26
2019-03-28T14:17:16.368Z,12.32
2019-03-28T14:20:22.343Z,12.34
2019-03-28T14:23:26.035Z,12.32
2019-03-28T14:26:30.232Z,12.37
2019-03-28T14:29:34.229Z,12.36
2019-03-28T14:32:52.188Z,12.33
2019-03-28T14:35:45.192Z,12.39
2019-03-28T14:38:48.935Z,12.38
2019-03-28T14:41:52.686Z,12.37
2019-03-28T14:44:56.396Z,12.33
2019-03-28T14:48:01.652Z,12.35
2019-03-28T14:51:05.367Z,12.38
2019-03-28T14:54:09.106Z,12.39
2019-03-28T14:57:14.319Z,12.41
2019-03-28T15:00:51.768Z,12.45
2019-03-28T15:03:56.584Z,16.44
2019-03-28T15:07:00.304Z,17.08
2019-03-28T15:10:05.550Z,15.33
2019-03-28T15:13:09.318Z,13.77
2019-03-28T15:16:13.064Z,13.26
2019-03-28T15:19:17.137Z,12.99
2019-03-28T15:22:21.262Z,12.87
2019-03-28T15:25:26.464Z,12.76
2019-03-28T15:28:30.310Z,12.63
2019-03-28T15:31:34.139Z,12.54
2019-03-28T15:34:37.958Z,12.45
2019-03-28T15:37:41.723Z,12.47
2019-03-28T15:40:46.152Z,12.39
2019-03-28T15:43:49.984Z,12.46
2019-03-28T15:46:56.726Z,12.46
2019-03-28T15:50:00.438Z,12.44
2019-03-28T15:53:04.179Z,12.42
2019-03-28T15:56:08.230Z,12.38
2019-03-28T15:59:11.976Z,13.39
2019-03-28T16:02:16.112Z,12.70
2019-03-28T16:05:19.871Z,12.42
2019-03-28T16:08:23.611Z,12.42
2019-03-28T16:11:29.612Z,12.27
2019-03-28T16:14:33.776Z,12.24
2019-03-28T16:17:37.509Z,12.18
2019-03-28T16:20:41.227Z,12.19
2019-03-28T16:23:44.965Z,12.20
2019-03-28T16:26:49.098Z,12.22
2019-03-28T16:29:54.400Z,12.20
2019-03-28T16:32:59.434Z,12.14
2019-03-28T16:36:03.979Z,12.18
2019-03-28T16:39:08.265Z,12.17
2019-03-28T16:42:13.923Z,12.11
2019-03-28T16:45:17.939Z,12.13
2019-03-28T16:48:21.948Z,12.11
2019-03-28T16:51:26.215Z,12.09
2019-03-28T16:54:30.121Z,12.13
2019-03-28T16:57:33.858Z,12.06
2019-03-28T17:00:39.188Z,12.01
2019-03-28T17:03:43.309Z,11.99
2019-03-28T17:06:47.557Z,11.93
2019-03-28T17:09:51.600Z,11.93
2019-03-28T17:12:55.331Z,11.91
2019-03-28T17:15:59.399Z,12.14
2019-03-28T17:19:03.834Z,12.22
2019-03-28T17:22:09.425Z,11.98
2019-03-28T17:25:13.703Z,11.91
2019-03-28T17:28:17.368Z,11.90
2019-03-28T17:31:21.096Z,11.87
2019-03-28T17:34:34.594Z,11.81
2019-03-28T17:37:30.480Z,11.80
2019-03-28T17:40:36.757Z,11.87
2019-03-28T17:43:40.119Z,11.82
2019-03-28T17:46:44.841Z,11.84
2019-03-28T17:49:48.763Z,11.76
2019-03-28T17:52:53.660Z,11.80
2019-03-28T17:55:57.523Z,11.76
2019-03-28T17:59:01.246Z,11.71
2019-03-28T18:02:04.953Z,11.73
2019-03-28T18:05:10.869Z,11.69
2019-03-28T18:08:14.469Z,11.60
2019-03-28T18:11:18.189Z,11.64
2019-03-28T18:14:23.618Z,11.60
2019-03-28T18:17:28.354Z,11.54
2019-03-28T18:20:32.079Z,11.58
2019-03-28T18:23:35.800Z,11.48
2019-03-28T18:26:39.533Z,11.55
2019-03-28T18:29:43.264Z,11.52
2019-03-28T18:32:49.871Z,11.52
2019-03-28T18:35:52.644Z,11.41
2019-03-28T18:38:57.036Z,11.54
2019-03-28T18:42:01.164Z,11.41
2019-03-28T18:45:05.717Z,11.41
2019-03-28T18:48:11.148Z,11.41
2019-03-28T18:51:16.127Z,11.53
2019-03-28T18:54:20.468Z,11.41
2019-03-28T18:57:24.322Z,11.33
2019-03-28T19:00:28.138Z,11.34
2019-03-28T19:03:32.316Z,11.31
2019-03-28T19:06:36.047Z,11.32
2019-03-28T19:09:39.796Z,11.25
2019-03-28T19:12:43.713Z,11.36
2019-03-28T19:15:49.792Z,11.37
2019-03-28T19:18:54.468Z,11.24
2019-03-28T19:21:59.008Z,11.19
2019-03-28T19:25:03.194Z,11.23
2019-03-28T19:28:07.763Z,11.19
2019-03-28T19:31:11.760Z,11.05
2019-03-28T19:34:15.851Z,11.02
2019-03-28T19:37:22.899Z,11.00
2019-03-28T19:40:27.194Z,11.19
2019-03-28T19:43:32.177Z,11.22
2019-03-28T19:46:35.895Z,11.27
2019-03-28T19:49:40.012Z,11.25
2019-03-28T19:52:43.718Z,11.28
2019-03-28T19:55:47.451Z,11.14
2019-03-28T19:58:51.707Z,11.09
2019-03-28T20:01:55.535Z,11.00
2019-03-28T20:04:59.603Z,11.18
2019-03-28T20:08:14.668Z,11.23
2019-03-28T20:11:10.745Z,11.33
2019-03-28T20:14:15.775Z,11.16
2019-03-28T20:17:19.756Z,11.00
2019-03-28T20:20:23.679Z,11.08
2019-03-28T20:23:27.411Z,11.12
2019-03-28T20:26:31.127Z,11.13
2019-03-28T20:29:35.185Z,11.10
2019-03-28T20:32:39.568Z,10.88
2019-03-28T20:35:43.291Z,10.87
2019-03-28T20:38:53.383Z,10.87
2019-03-28T20:41:53.184Z,10.81
2019-03-28T20:44:56.913Z,10.68
2019-03-28T20:48:00.651Z,10.69
2019-03-28T20:51:04.366Z,10.70
2019-03-28T20:54:08.166Z,10.68
2019-03-28T20:57:11.921Z,10.60
2019-03-28T21:00:22.771Z,10.31
2019-03-28T21:03:26.982Z,10.22
2019-03-28T21:06:31.166Z,10.12
2019-03-28T21:09:35.265Z,10.12
2019-03-28T21:12:39.095Z,9.98
2019-03-28T21:15:42.846Z,9.83
2019-03-28T21:18:46.562Z,9.75
2019-03-28T21:21:50.329Z,9.65
2019-03-28T21:24:54.427Z,9.65
2019-03-28T21:27:58.848Z,9.63
2019-03-28T21:31:04.286Z,9.56
2019-03-28T21:34:09.082Z,9.53
2019-03-28T21:37:13.234Z,9.39
2019-03-28T21:40:16.980Z,9.44
2019-03-28T21:43:20.754Z,9.30
2019-03-28T21:46:24.467Z,9.29
2019-03-28T21:49:28.494Z,9.28
2019-03-28T21:52:32.832Z,9.23
2019-03-28T21:55:36.595Z,9.14
2019-03-28T21:58:40.730Z,9.12
2019-03-28T22:01:44.437Z,9.15
2019-03-28T22:04:48.188Z,8.89
2019-03-28T22:07:51.907Z,8.92
2019-03-28T22:10:56.772Z,8.67
2019-03-28T22:14:00.703Z,8.69
2019-03-28T22:17:04.705Z,8.65
2019-03-28T22:20:09.020Z,8.46
2019-03-28T22:23:13.748Z,8.51
2019-03-28T22:26:17.738Z,8.43
2019-03-28T22:29:21.454Z,8.60
2019-03-28T22:32:25.203Z,8.63
2019-03-28T22:35:29.290Z,8.32
2019-03-28T22:38:33.415Z,8.30
2019-03-28T22:41:37.927Z,8.27
2019-03-28T22:44:41.674Z,8.19
2019-03-28T22:47:45.886Z,8.19
2019-03-28T22:50:50.151Z,8.30
2019-03-28T22:53:54.135Z,8.12
2019-03-28T22:56:58.199Z,8.15
2019-03-28T23:03:01.901Z,8.21
2019-03-28T23:06:05.739Z,8.12
2019-03-28T23:09:09.483Z,8.40
2019-03-28T23:12:13.713Z,8.13
2019-03-28T23:15:17.486Z,8.04
2019-03-28T23:18:21.205Z,8.11
2019-03-28T23:21:26.132Z,7.95
2019-03-28T23:24:29.864Z,7.97
2019-03-28T23:27:33.642Z,7.89
2019-03-28T23:30:37.928Z,7.91
2019-03-28T23:33:42.098Z,8.02
2019-03-28T23:36:46.263Z,7.90
2019-03-28T23:39:49.967Z,7.86
2019-03-28T23:42:53.692Z,7.73
2019-03-28T23:45:57.457Z,7.88
2019-03-28T23:49:01.498Z,7.92
2019-03-28T23:52:05.704Z,7.87
2019-03-28T23:55:10.601Z,7.72
2019-03-28T23:58:14.340Z,7.92
